createdAt,value
2022-09-09T00:01:38.985Z,91.40
2022-09-09T00:04:33.066Z,91.40
2022-09-09T00:07:17.770Z,91.40
2022-09-09T00:09:50.102Z,91.30
2022-09-09T00:12:40.660Z,91.40
2022-09-09T00:15:14.409Z,91.40
2022-09-09T00:18:04.640Z,91.40
2022-09-09T00:20:47.087Z,91.50
2022-09-09T00:23:23.206Z,91.40
2022-09-09T00:28:28.084Z,91.40
2022-09-09T00:30:56.054Z,91.30
2022-09-09T00:33:25.747Z,91.40
2022-09-09T00:35:57.565Z,91.40
2022-09-09T00:38:39.047Z,91.30
2022-09-09T00:41:38.832Z,91.30
2022-09-09T00:44:30.995Z,91.40
2022-09-09T00:47:08.432Z,91.50
2022-09-09T00:49:49.798Z,91.80
2022-09-09T00:52:25.578Z,91.80
2022-09-09T00:54:52.221Z,91.80
2022-09-09T00:57:32.500Z,91.80
2022-09-09T01:00:20.803Z,91.70
2022-09-09T01:03:03.212Z,91.70
2022-09-09T01:05:36.053Z,91.70
2022-09-09T01:08:07.744Z,91.70
2022-09-09T01:10:47.109Z,91.70
2022-09-09T01:13:35.575Z,91.80
2022-09-09T01:16:06.465Z,91.80
2022-09-09T01:18:46.907Z,91.70
2022-09-09T01:21:35.702Z,91.70
2022-09-09T01:24:28.810Z,91.70
2022-09-09T01:27:02.567Z,91.80
2022-09-09T01:29:29.792Z,91.80
2022-09-09T01:32:35.201Z,91.80
2022-09-09T01:35:03.309Z,91.80
2022-09-09T01:37:30.039Z,91.80
2022-09-09T01:39:56.777Z,91.80
2022-09-09T01:42:23.499Z,91.80
2022-09-09T01:44:50.196Z,91.80
2022-09-09T01:47:16.999Z,91.80
2022-09-09T01:49:43.670Z,91.80
2022-09-09T01:52:10.576Z,91.80
2022-09-09T01:54:37.300Z,91.80
2022-09-09T01:57:23.043Z,91.80
2022-09-09T02:00:02.128Z,91.80
2022-09-09T02:02:47.279Z,91.70
2022-09-09T02:05:22.202Z,91.80
2022-09-09T02:07:52.411Z,91.80
2022-09-09T02:10:27.081Z,91.80
2022-09-09T02:13:00.735Z,91.70
2022-09-09T02:15:35.840Z,91.70
2022-09-09T02:18:09.135Z,91.70
2022-09-09T02:20:38.844Z,91.70
2022-09-09T02:23:09.537Z,91.70
2022-09-09T02:25:37.917Z,91.80
2022-09-09T02:28:11.258Z,91.80
2022-09-09T02:30:41.015Z,91.80
2022-09-09T02:33:11.617Z,91.80
2022-09-09T02:35:39.033Z,91.80
2022-09-09T02:38:11.052Z,91.70
2022-09-09T02:40:37.838Z,91.70
2022-09-09T02:43:04.805Z,91.70
2022-09-09T02:45:57.043Z,91.70
2022-09-09T02:48:53.259Z,91.70
2022-09-09T02:51:32.669Z,91.80
2022-09-09T02:54:21.959Z,91.70
2022-09-09T02:56:57.456Z,91.70
2022-09-09T02:59:26.931Z,91.80
2022-09-09T03:01:54.289Z,91.70
2022-09-09T03:04:21.544Z,91.70
2022-09-09T03:06:48.475Z,91.70
2022-09-09T03:09:15.175Z,91.70
2022-09-09T03:11:41.904Z,91.70
2022-09-09T03:14:09.399Z,91.80
2022-09-09T03:16:36.145Z,91.80
2022-09-09T03:19:02.883Z,91.80
2022-09-09T03:21:29.915Z,91.80
2022-09-09T03:23:56.710Z,91.90
2022-09-09T03:26:23.948Z,91.90
2022-09-09T03:28:52.661Z,91.90
2022-09-09T03:31:20.567Z,91.90
2022-09-09T03:33:47.360Z,91.90
2022-09-09T03:36:14.194Z,91.90
2022-09-09T03:38:40.996Z,91.90
2022-09-09T03:41:08.888Z,91.90
2022-09-09T03:43:36.074Z,91.90
2022-09-09T03:46:02.832Z,91.90
2022-09-09T03:48:29.875Z,91.90
2022-09-09T03:50:58.779Z,92.00
2022-09-09T03:53:26.067Z,92.00
2022-09-09T03:56:00.472Z,92.00
2022-09-09T03:58:27.828Z,92.00
2022-09-09T04:00:59.763Z,92.00
2022-09-09T04:03:28.177Z,92.00
2022-09-09T04:05:56.574Z,92.00
2022-09-09T04:08:26.254Z,92.10
2022-09-09T04:10:54.312Z,92.10
2022-09-09T04:13:21.073Z,92.10
2022-09-09T04:15:55.863Z,92.10
2022-09-09T04:18:23.403Z,92.10
2022-09-09T04:20:51.247Z,92.10
2022-09-09T04:23:21.585Z,92.10
2022-09-09T04:25:54.124Z,92.10
2022-09-09T04:28:23.671Z,92.10
2022-09-09T04:30:51.708Z,91.80
2022-09-09T04:33:18.422Z,92.10
2022-09-09T04:35:50.336Z,92.10
2022-09-09T04:38:18.456Z,91.80
2022-09-09T04:40:47.895Z,91.90
2022-09-09T04:43:17.857Z,91.90
2022-09-09T04:45:45.201Z,91.90
2022-09-09T04:48:11.988Z,91.90
2022-09-09T04:50:38.668Z,91.90
2022-09-09T04:53:06.504Z,91.90
2022-09-09T04:55:34.763Z,91.90
2022-09-09T04:58:08.687Z,91.90
2022-09-09T05:00:36.908Z,91.90
2022-09-09T05:03:05.931Z,91.90
2022-09-09T05:05:37.201Z,91.90
2022-09-09T05:08:05.709Z,91.90
2022-09-09T05:10:33.462Z,91.90
2022-09-09T05:13:00.251Z,91.90
2022-09-09T05:15:27.039Z,92.00
2022-09-09T05:17:54.095Z,92.00
2022-09-09T05:20:21.076Z,92.00
2022-09-09T05:22:47.831Z,92.00
2022-09-09T05:25:14.834Z,92.00
2022-09-09T05:27:41.544Z,92.00
2022-09-09T05:30:09.080Z,92.00
2022-09-09T05:32:35.760Z,92.10
2022-09-09T05:35:02.588Z,92.10
2022-09-09T05:37:31.187Z,92.10
2022-09-09T05:39:58.988Z,92.10
2022-09-09T05:42:25.817Z,92.10
2022-09-09T05:44:55.273Z,92.10
2022-09-09T05:47:22.022Z,92.10
2022-09-09T05:49:49.096Z,92.10
2022-09-09T05:52:15.815Z,92.10
2022-09-09T05:54:43.673Z,92.10
2022-09-09T05:57:10.360Z,92.10
2022-09-09T05:59:37.117Z,92.10
2022-09-09T06:02:03.933Z,92.10
2022-09-09T06:04:31.592Z,92.10
2022-09-09T06:06:58.280Z,92.10
2022-09-09T06:09:24.987Z,92.10
2022-09-09T06:11:51.706Z,92.10
2022-09-09T06:14:19.096Z,92.20
2022-09-09T06:16:46.227Z,92.10
2022-09-09T06:19:13.808Z,92.10
2022-09-09T06:21:41.191Z,92.20
2022-09-09T06:24:11.542Z,92.20
2022-09-09T06:26:42.634Z,92.30
2022-09-09T06:29:09.699Z,92.30
2022-09-09T06:31:37.910Z,92.30
2022-09-09T06:34:08.981Z,92.30
2022-09-09T06:36:38.389Z,92.30
2022-09-09T06:39:08.796Z,92.40
2022-09-09T06:41:39.244Z,92.40
2022-09-09T06:44:05.981Z,92.50
2022-09-09T06:46:34.123Z,92.50
2022-09-09T06:49:04.200Z,92.50
2022-09-09T06:51:33.512Z,92.50
2022-09-09T06:54:01.593Z,92.50
2022-09-09T06:56:36.560Z,92.60
2022-09-09T06:59:06.066Z,92.60
2022-09-09T07:01:34.993Z,92.60
2022-09-09T07:04:02.867Z,92.70
2022-09-09T07:06:31.782Z,92.80
2022-09-09T07:09:04.938Z,92.80
2022-09-09T07:11:34.586Z,92.90
2022-09-09T07:14:01.829Z,92.90
2022-09-09T07:16:30.478Z,92.70
2022-09-09T07:18:59.997Z,92.70
2022-09-09T07:21:28.180Z,92.60
2022-09-09T07:23:55.435Z,91.70
2022-09-09T07:26:25.148Z,89.50
2022-09-09T07:28:51.909Z,81.90
2022-09-09T07:31:21.643Z,76.60
2022-09-09T07:33:49.352Z,68.10
2022-09-09T07:36:25.083Z,61.70
2022-09-09T07:38:54.980Z,61.30
2022-09-09T07:41:23.009Z,49.60
2022-09-09T07:43:50.706Z,45.80
2022-09-09T07:46:22.659Z,20.20
2022-09-09T07:48:52.800Z,18.20
2022-09-09T07:51:23.348Z,19.70
2022-09-09T07:53:53.969Z,15.60
2022-09-09T07:56:23.519Z,20.90
2022-09-09T07:58:53.343Z,20.50
2022-09-09T08:01:26.941Z,24.30
2022-09-09T08:03:56.856Z,16.20
2022-09-09T08:06:23.892Z,12.20
2022-09-09T08:08:55.340Z,16.50
2022-09-09T08:11:24.172Z,14.30
2022-09-09T08:13:54.773Z,10.80
2022-09-09T08:16:26.245Z,13.90
2022-09-09T08:18:54.959Z,10.00
2022-09-09T08:21:29.433Z,9.70
2022-09-09T08:23:58.276Z,3.10
2022-09-09T08:26:36.445Z,3.50
2022-09-09T08:29:05.529Z,3.90
2022-09-09T08:31:41.086Z,3.70
2022-09-09T08:34:08.347Z,1.00
2022-09-09T08:36:40.225Z,1.00
2022-09-09T08:39:08.244Z,1.00
2022-09-09T08:41:37.645Z,1.00
2022-09-09T08:44:29.224Z,1.00
2022-09-09T08:47:10.901Z,1.00
2022-09-09T08:50:19.083Z,1.00
2022-09-09T08:53:26.884Z,1.00
2022-09-09T08:56:02.100Z,1.00
2022-09-09T08:58:30.517Z,1.00
2022-09-09T09:01:20.059Z,1.00
2022-09-09T09:04:14.695Z,1.00
2022-09-09T09:06:49.364Z,1.00
2022-09-09T09:09:27.709Z,1.00
2022-09-09T09:11:56.110Z,1.00
2022-09-09T09:14:26.791Z,1.00
2022-09-09T09:17:04.567Z,1.00
2022-09-09T09:19:34.614Z,1.00
2022-09-09T09:22:21.008Z,1.00
2022-09-09T09:24:57.435Z,1.00
2022-09-09T09:27:35.907Z,1.00
2022-09-09T09:30:26.884Z,1.00
2022-09-09T09:33:02.689Z,1.00
2022-09-09T09:35:29.468Z,1.00
2022-09-09T09:40:51.862Z,1.00
2022-09-09T09:43:35.915Z,1.00
2022-09-09T09:46:17.232Z,1.00
2022-09-09T09:48:44.496Z,1.00
2022-09-09T09:51:16.975Z,1.00
2022-09-09T09:53:44.576Z,1.00
2022-09-09T09:56:14.149Z,1.00
2022-09-09T09:58:51.105Z,1.00
2022-09-09T10:01:28.214Z,1.00
2022-09-09T10:04:00.438Z,1.00
2022-09-09T10:06:35.755Z,1.00
2022-09-09T10:09:08.641Z,1.00
2022-09-09T10:11:50.213Z,1.00
2022-09-09T10:14:41.632Z,1.00
2022-09-09T10:17:23.667Z,1.00
2022-09-09T10:20:15.704Z,1.00
2022-09-09T10:23:07.970Z,1.00
2022-09-09T10:26:20.569Z,1.00
2022-09-09T10:29:04.838Z,1.00
2022-09-09T10:31:53.099Z,1.00
2022-09-09T10:34:56.692Z,1.00
2022-09-09T10:37:47.263Z,1.00
2022-09-09T10:40:31.533Z,1.00
2022-09-09T10:43:17.869Z,1.00
2022-09-09T10:46:19.544Z,1.00
2022-09-09T10:49:22.570Z,1.00
2022-09-09T10:52:16.821Z,1.00
2022-09-09T10:54:50.020Z,1.00
2022-09-09T10:57:26.353Z,1.00
2022-09-09T10:59:58.371Z,1.00
2022-09-09T11:02:32.715Z,1.00
2022-09-09T11:05:18.184Z,1.00
2022-09-09T11:08:03.800Z,1.00
2022-09-09T11:10:40.227Z,1.00
2022-09-09T11:13:34.492Z,1.00
2022-09-09T11:16:20.414Z,1.00
2022-09-09T11:18:48.528Z,1.00
2022-09-09T11:21:32.553Z,1.00
2022-09-09T11:24:12.753Z,1.00
2022-09-09T11:27:08.163Z,1.00
2022-09-09T11:29:35.283Z,1.00
2022-09-09T11:32:34.485Z,1.00
2022-09-09T11:35:21.812Z,1.00
2022-09-09T11:38:19.027Z,1.00
2022-09-09T11:40:47.449Z,1.00
2022-09-09T11:43:24.000Z,1.00
2022-09-09T11:46:01.046Z,1.00
2022-09-09T11:48:37.800Z,1.00
2022-09-09T11:51:16.722Z,1.00
2022-09-09T11:53:50.936Z,1.00
2022-09-09T11:56:27.207Z,1.00
2022-09-09T11:59:03.973Z,1.00
2022-09-09T12:01:44.908Z,1.00
2022-09-09T12:04:29.929Z,1.00
2022-09-09T12:07:01.327Z,1.00
2022-09-09T12:09:58.897Z,1.00
2022-09-09T12:12:34.215Z,1.00
2022-09-09T12:15:09.679Z,1.00
2022-09-09T12:17:51.541Z,1.00
2022-09-09T12:20:18.507Z,1.00
2022-09-09T12:23:00.474Z,1.00
2022-09-09T12:25:51.155Z,1.00
2022-09-09T12:28:34.718Z,1.00
2022-09-09T12:31:18.991Z,1.00
2022-09-09T12:33:48.494Z,1.00
2022-09-09T12:36:20.466Z,1.00
2022-09-09T12:38:47.847Z,1.00
2022-09-09T12:41:26.074Z,1.00
2022-09-09T12:44:03.879Z,1.00
2022-09-09T12:46:43.837Z,1.00
2022-09-09T12:49:32.188Z,1.00
2022-09-09T12:51:59.585Z,1.00
2022-09-09T12:54:26.345Z,1.00
2022-09-09T12:56:53.176Z,1.00
2022-09-09T12:59:36.114Z,1.00
2022-09-09T13:02:03.026Z,1.00
2022-09-09T13:04:29.827Z,1.00
2022-09-09T13:07:08.044Z,1.00
2022-09-09T13:09:34.741Z,1.00
2022-09-09T13:12:04.552Z,1.00
2022-09-09T13:14:35.755Z,1.00
2022-09-09T13:17:04.904Z,1.00
2022-09-09T13:19:36.419Z,1.00
2022-09-09T13:22:32.229Z,1.00
2022-09-09T13:25:18.042Z,1.00
2022-09-09T13:28:03.515Z,1.00
2022-09-09T13:30:33.400Z,1.00
2022-09-09T13:33:13.132Z,1.00
2022-09-09T13:35:57.983Z,1.00
2022-09-09T13:38:27.713Z,1.00
2022-09-09T13:41:00.178Z,1.00
2022-09-09T13:43:27.824Z,1.00
2022-09-09T13:46:00.874Z,1.00
2022-09-09T13:48:28.612Z,1.00
2022-09-09T13:51:00.815Z,1.00
2022-09-09T13:53:27.797Z,1.00
2022-09-09T13:55:54.849Z,1.00
2022-09-09T13:58:22.537Z,1.00
2022-09-09T14:00:50.876Z,1.00
2022-09-09T14:03:17.800Z,1.00
2022-09-09T14:05:45.900Z,1.00
2022-09-09T14:08:22.675Z,1.00
2022-09-09T14:10:49.454Z,1.00
2022-09-09T14:13:16.575Z,1.00
2022-09-09T14:15:43.366Z,1.00
2022-09-09T14:18:14.669Z,1.00
2022-09-09T14:20:41.557Z,1.00
2022-09-09T14:23:12.550Z,1.00
2022-09-09T14:25:42.386Z,1.00
2022-09-09T14:28:11.571Z,1.00
2022-09-09T14:30:42.624Z,1.00
2022-09-09T14:33:14.873Z,1.00
2022-09-09T14:35:42.117Z,1.00
2022-09-09T14:38:09.968Z,1.00
2022-09-09T14:40:39.723Z,1.00
2022-09-09T14:43:06.617Z,1.00
2022-09-09T14:45:33.857Z,1.00
2022-09-09T14:48:01.063Z,1.00
2022-09-09T14:50:27.969Z,1.00
2022-09-09T14:52:54.706Z,1.00
2022-09-09T14:55:22.270Z,1.00
2022-09-09T14:57:49.095Z,1.00
2022-09-09T15:00:16.939Z,1.00
2022-09-09T15:02:43.772Z,1.00
2022-09-09T15:05:11.413Z,1.00
2022-09-09T15:07:38.956Z,1.00
2022-09-09T15:10:06.190Z,1.00
2022-09-09T15:12:34.194Z,1.00
2022-09-09T15:15:00.964Z,1.00
2022-09-09T15:17:28.115Z,1.00
2022-09-09T15:19:55.987Z,1.00
2022-09-09T15:22:23.096Z,1.00
2022-09-09T15:24:49.793Z,1.00
2022-09-09T15:27:16.798Z,1.00
2022-09-09T15:29:45.062Z,1.00
2022-09-09T15:32:11.955Z,1.00
2022-09-09T15:34:39.053Z,1.00
2022-09-09T15:37:07.235Z,1.00
2022-09-09T15:39:38.583Z,1.00
2022-09-09T15:42:05.792Z,1.00
2022-09-09T15:44:40.205Z,1.00
2022-09-09T15:47:06.958Z,1.00
2022-09-09T15:49:33.646Z,1.00
2022-09-09T15:52:04.348Z,1.00
2022-09-09T15:54:36.377Z,1.00
2022-09-09T15:57:05.879Z,1.00
2022-09-09T15:59:34.896Z,1.00
2022-09-09T16:02:02.075Z,1.00
2022-09-09T16:04:30.550Z,1.00
2022-09-09T16:07:05.477Z,1.00
2022-09-09T16:09:33.018Z,1.00
2022-09-09T16:12:01.967Z,1.00
2022-09-09T16:14:29.336Z,1.00
2022-09-09T16:16:58.606Z,1.00
2022-09-09T16:19:26.784Z,1.00
2022-09-09T16:21:53.459Z,1.00
2022-09-09T16:24:21.071Z,1.00
2022-09-09T16:26:49.800Z,1.00
2022-09-09T16:29:18.360Z,1.00
2022-09-09T16:31:47.085Z,1.00
2022-09-09T16:34:15.307Z,1.00
2022-09-09T16:36:43.348Z,1.00
2022-09-09T16:39:12.188Z,1.00
2022-09-09T16:41:40.379Z,1.00
2022-09-09T16:44:09.526Z,1.00
2022-09-09T16:46:42.485Z,1.00
2022-09-09T16:49:11.819Z,1.00
2022-09-09T16:51:40.190Z,1.00
2022-09-09T16:54:09.138Z,1.00
2022-09-09T16:56:38.879Z,1.00
2022-09-09T16:59:09.458Z,1.00
2022-09-09T17:01:39.218Z,1.00
2022-09-09T17:04:09.448Z,1.00
2022-09-09T17:06:37.794Z,1.00
2022-09-09T17:09:08.064Z,1.00
2022-09-09T17:11:35.424Z,1.00
2022-09-09T17:14:02.480Z,1.00
2022-09-09T17:16:32.064Z,1.00
2022-09-09T17:19:02.266Z,1.00
2022-09-09T17:21:30.058Z,1.00
2022-09-09T17:23:57.822Z,1.00
2022-09-09T17:26:29.987Z,1.00
2022-09-09T17:28:59.797Z,1.00
2022-09-09T17:31:28.585Z,1.00
2022-09-09T17:33:56.315Z,1.00
2022-09-09T17:36:28.628Z,1.00
2022-09-09T17:38:55.979Z,1.00
2022-09-09T17:41:34.599Z,1.00
2022-09-09T17:44:01.613Z,1.00
2022-09-09T17:46:31.825Z,1.00
2022-09-09T17:49:01.230Z,1.00
2022-09-09T17:51:31.119Z,1.00
2022-09-09T17:54:03.568Z,1.00
2022-09-09T17:56:32.637Z,1.00
2022-09-09T17:59:01.248Z,1.00
2022-09-09T18:01:31.545Z,1.00
2022-09-09T18:04:01.580Z,1.00
2022-09-09T18:06:33.931Z,1.00
2022-09-09T18:09:08.059Z,1.00
2022-09-09T18:11:43.831Z,1.00
2022-09-09T18:14:12.822Z,1.00
2022-09-09T18:16:40.781Z,1.00
2022-09-09T18:19:12.434Z,1.00
2022-09-09T18:21:39.506Z,1.00
2022-09-09T18:24:07.598Z,1.00
2022-09-09T18:26:35.305Z,1.00
2022-09-09T18:29:05.601Z,1.00
2022-09-09T18:31:33.155Z,1.00
2022-09-09T18:34:02.888Z,1.00
2022-09-09T18:36:35.504Z,1.00
2022-09-09T18:39:04.025Z,1.00
2022-09-09T18:41:37.269Z,1.00
2022-09-09T18:44:13.594Z,1.00
2022-09-09T18:46:41.240Z,1.00
2022-09-09T18:49:08.455Z,1.00
2022-09-09T18:51:37.067Z,1.00
2022-09-09T18:54:07.940Z,1.00
2022-09-09T18:56:35.572Z,1.00
2022-09-09T18:59:04.582Z,1.00
2022-09-09T19:01:31.404Z,1.00
2022-09-09T19:03:58.747Z,1.00
2022-09-09T19:06:28.398Z,1.00
2022-09-09T19:08:57.508Z,1.00
2022-09-09T19:11:28.309Z,1.00
2022-09-09T19:13:58.220Z,1.00
2022-09-09T19:16:29.222Z,1.00
2022-09-09T19:18:58.997Z,1.00
2022-09-09T19:21:31.720Z,1.00
2022-09-09T19:24:02.385Z,1.00
2022-09-09T19:26:32.099Z,1.00
2022-09-09T19:28:59.679Z,1.00
2022-09-09T19:31:31.039Z,1.00
2022-09-09T19:33:58.106Z,1.00
2022-09-09T19:36:29.639Z,1.00
2022-09-09T19:38:56.473Z,1.00
2022-09-09T19:41:26.269Z,1.00
2022-09-09T19:43:57.406Z,1.00
2022-09-09T19:46:24.314Z,1.00
2022-09-09T19:48:51.086Z,1.00
2022-09-09T19:51:21.589Z,2.00
2022-09-09T19:53:56.320Z,1.00
2022-09-09T19:56:25.037Z,1.80
2022-09-09T19:58:54.383Z,1.50
2022-09-09T20:01:28.183Z,3.10
2022-09-09T20:03:56.920Z,1.30
2022-09-09T20:06:28.840Z,1.00
2022-09-09T20:08:56.636Z,3.10
2022-09-09T20:11:24.979Z,6.30
2022-09-09T20:13:51.816Z,7.10
2022-09-09T20:16:22.010Z,7.10
2022-09-09T20:18:52.653Z,6.80
2022-09-09T20:21:22.531Z,7.70
2022-09-09T20:23:51.162Z,9.40
2022-09-09T20:26:23.369Z,9.90
2022-09-09T20:28:51.897Z,12.70
2022-09-09T20:31:21.612Z,15.70
2022-09-09T20:33:48.579Z,19.50
2022-09-09T20:36:20.905Z,19.20
2022-09-09T20:38:51.459Z,24.00
2022-09-09T20:41:21.580Z,24.30
2022-09-09T20:43:53.094Z,21.40
2022-09-09T20:46:22.364Z,20.20
2022-09-09T20:48:56.738Z,22.20
2022-09-09T20:51:29.316Z,25.90
2022-09-09T20:53:57.710Z,28.00
2022-09-09T20:56:25.186Z,29.60
2022-09-09T20:58:51.953Z,35.80
2022-09-09T21:01:21.110Z,36.10
2022-09-09T21:03:48.456Z,35.00
2022-09-09T21:06:17.096Z,43.70
2022-09-09T21:08:45.691Z,48.30
2022-09-09T21:11:12.917Z,49.00
2022-09-09T21:13:41.226Z,46.30
2022-09-09T21:16:10.870Z,50.10
2022-09-09T21:18:37.789Z,60.30
2022-09-09T21:21:04.687Z,63.30
2022-09-09T21:23:31.370Z,62.10
2022-09-09T21:25:58.128Z,63.00
2022-09-09T21:28:28.333Z,62.70
2022-09-09T21:30:58.697Z,59.30
2022-09-09T21:33:28.216Z,55.70
2022-09-09T21:36:03.994Z,58.10
2022-09-09T21:38:31.127Z,60.00
2022-09-09T21:40:57.891Z,59.30
2022-09-09T21:43:24.580Z,61.50
2022-09-09T21:45:51.331Z,61.80
2022-09-09T21:48:21.268Z,62.70
2022-09-09T21:50:48.134Z,68.10
2022-09-09T21:53:18.104Z,70.50
2022-09-09T21:55:47.692Z,74.00
2022-09-09T21:58:20.727Z,71.50
2022-09-09T22:00:48.907Z,72.40
2022-09-09T22:03:17.100Z,71.70
2022-09-09T22:05:45.524Z,73.50
2022-09-09T22:08:14.495Z,74.80
2022-09-09T22:10:45.140Z,77.00
2022-09-09T22:13:14.182Z,78.70
2022-09-09T22:15:45.533Z,78.90
2022-09-09T22:18:14.123Z,81.50
2022-09-09T22:20:43.951Z,81.30
2022-09-09T22:23:12.162Z,80.60
2022-09-09T22:25:39.719Z,81.20
2022-09-09T22:28:08.600Z,82.20
2022-09-09T22:30:35.708Z,81.50
2022-09-09T22:33:02.679Z,79.70
2022-09-09T22:35:29.384Z,79.70
2022-09-09T22:37:57.194Z,81.40
2022-09-09T22:40:24.379Z,81.80
2022-09-09T22:42:53.069Z,82.10
2022-09-09T22:45:21.632Z,82.60
2022-09-09T22:47:48.796Z,81.90
2022-09-09T22:50:15.564Z,84.50
2022-09-09T22:52:42.381Z,85.40
2022-09-09T22:55:09.443Z,85.60
2022-09-09T22:57:37.326Z,85.50
2022-09-09T23:00:08.868Z,86.30
2022-09-09T23:02:40.839Z,86.90
2022-09-09T23:05:08.756Z,86.20
2022-09-09T23:07:36.857Z,86.50
2022-09-09T23:10:05.302Z,86.30
2022-09-09T23:12:32.702Z,86.80
2022-09-09T23:14:59.469Z,86.00
2022-09-09T23:17:26.300Z,86.50
2022-09-09T23:19:54.269Z,87.30
2022-09-09T23:22:21.150Z,88.40
2022-09-09T23:24:49.105Z,89.70
2022-09-09T23:27:16.284Z,90.10
2022-09-09T23:29:42.947Z,90.50
2022-09-09T23:32:09.636Z,90.60
2022-09-09T23:34:36.362Z,90.70
2022-09-09T23:37:03.048Z,90.70
2022-09-09T23:39:29.799Z,90.80
2022-09-09T23:41:56.687Z,90.80
2022-09-09T23:44:23.485Z,90.80
2022-09-09T23:46:50.242Z,90.90
2022-09-09T23:49:16.967Z,90.90
2022-09-09T23:51:43.699Z,90.90
2022-09-09T23:54:10.730Z,90.80
2022-09-09T23:56:42.319Z,90.70
2022-09-09T23:59:09.700Z,90.60
